Time;durP1;ratioP1;P1;durP2;ratioP2;P2;SDS_P1;SDS_P2;PMS_P1;PMS_P2;Temp;Humidity;BMP_temperature;BMP_pressure;BME280_temperature;BME280_humidity;BME280_pressure;Samples;Min_cycle;Max_cycle;Signal;HPM_P1;HPM_P2
2023/06/03 00:00:37;;;;;;;8.53;5.90;;;14.00;99.90;;;;;;5028999;28;20240;-69
2023/06/03 00:03:03;;;;;;;13.27;6.70;;;14.00;99.90;;;;;;5028927;28;20174;-69
2023/06/03 00:05:28;;;;;;;7.73;6.77;;;14.00;99.90;;;;;;5028378;28;20790;-69
2023/06/03 00:07:54;;;;;;;7.40;6.70;;;13.80;99.90;;;;;;5028481;28;20214;-69
2023/06/03 00:10:20;;;;;;;6.57;5.97;;;13.70;99.90;;;;;;5020231;28;20830;-69
2023/06/03 00:12:45;;;;;;;10.30;6.47;;;13.70;99.90;;;;;;5026715;28;20301;-70
2023/06/03 00:15:11;;;;;;;10.87;7.10;;;13.60;99.90;;;;;;5028544;28;20666;-70
2023/06/03 00:17:37;;;;;;;6.13;4.90;;;13.60;99.90;;;;;;5028471;28;20226;-69
2023/06/03 00:20:06;;;;;;;6.60;5.20;;;13.60;99.90;;;;;;5028426;28;20170;-69
2023/06/03 00:22:39;;;;;;;12.50;6.30;;;13.60;99.90;;;;;;5028739;28;20417;-69
2023/06/03 00:25:07;;;;;;;8.03;5.77;;;13.60;99.90;;;;;;5025687;28;20425;-69
2023/06/03 00:27:34;;;;;;;11.57;5.80;;;13.60;99.90;;;;;;5013965;28;20445;-69
2023/06/03 00:30:01;;;;;;;9.83;6.10;;;13.60;99.90;;;;;;5028787;28;20413;-69
2023/06/03 00:32:27;;;;;;;11.33;6.87;;;13.60;99.90;;;;;;5028701;28;20487;-69
2023/06/03 00:34:53;;;;;;;11.10;6.47;;;13.60;99.90;;;;;;5028520;28;20887;-69
2023/06/03 00:37:18;;;;;;;8.27;6.77;;;13.60;99.90;;;;;;5027084;28;20194;-69
2023/06/03 00:39:44;;;;;;;7.77;6.23;;;13.50;99.90;;;;;;5028622;28;20178;-70
2023/06/03 00:42:10;;;;;;;8.30;5.87;;;13.40;99.90;;;;;;5029309;28;20527;-69
2023/06/03 00:44:35;;;;;;;9.07;6.40;;;13.40;99.90;;;;;;5032585;28;20170;-69
2023/06/03 00:47:02;;;;;;;7.10;5.60;;;13.30;99.90;;;;;;5032537;28;20194;-69
2023/06/03 00:49:28;;;;;;;9.17;6.10;;;13.40;99.90;;;;;;5031289;28;20173;-69
2023/06/03 00:51:54;;;;;;;10.90;6.63;;;13.30;99.90;;;;;;5032725;28;20918;-69
2023/06/03 00:54:20;;;;;;;6.87;5.90;;;13.40;99.90;;;;;;5032119;28;20202;-69
2023/06/03 00:56:47;;;;;;;12.17;6.50;;;13.40;99.90;;;;;;5032241;28;20443;-70
2023/06/03 00:59:15;;;;;;;8.27;6.10;;;13.40;99.90;;;;;;5032556;28;20257;-70
2023/06/03 01:01:44;;;;;;;11.13;6.40;;;13.40;99.90;;;;;;5032355;28;20413;-69
2023/06/03 01:04:12;;;;;;;9.20;6.40;;;13.50;99.90;;;;;;5032092;28;20420;-69
2023/06/03 01:06:54;;;;;;;12.20;7.30;;;13.40;99.90;;;;;;5032296;28;20949;-69
2023/06/03 01:10:03;;;;;;;7.50;6.00;;;13.50;99.90;;;;;;5032280;28;20424;-69
2023/06/03 01:12:51;;;;;;;7.13;6.30;;;13.50;99.90;;;;;;5031072;28;20452;-69
2023/06/03 01:15:20;;;;;;;12.57;6.10;;;13.40;99.90;;;;;;5032116;28;20413;-69
2023/06/03 01:17:50;;;;;;;9.60;6.00;;;13.40;99.90;;;;;;5031763;28;20433;-69
2023/06/03 01:20:17;;;;;;;12.77;6.60;;;13.40;99.90;;;;;;5032026;28;20409;-69
2023/06/03 01:22:44;;;;;;;10.30;5.87;;;13.40;99.90;;;;;;5031878;28;20405;-69
2023/06/03 01:25:12;;;;;;;8.97;6.60;;;13.30;99.90;;;;;;5031971;28;20421;-68
2023/06/03 01:27:39;;;;;;;7.07;6.33;;;13.20;99.90;;;;;;5031572;28;20437;-69
2023/06/03 01:30:10;;;;;;;9.57;6.37;;;13.20;99.90;;;;;;5030527;28;20471;-69
2023/06/03 01:32:38;;;;;;;13.10;6.17;;;13.20;99.90;;;;;;5031788;28;20810;-69
2023/06/03 01:35:06;;;;;;;13.67;7.17;;;13.20;99.90;;;;;;5031521;28;20409;-69
2023/06/03 01:37:33;;;;;;;13.83;7.07;;;13.10;99.90;;;;;;5031364;28;20941;-69
2023/06/03 01:40:00;;;;;;;10.13;6.47;;;13.10;99.90;;;;;;5031637;28;20776;-69
2023/06/03 01:42:26;;;;;;;10.40;7.50;;;13.10;99.90;;;;;;5031794;28;20906;-69
2023/06/03 01:44:53;;;;;;;8.87;6.80;;;13.20;99.90;;;;;;5031409;28;20437;-69
2023/06/03 01:47:19;;;;;;;10.30;6.17;;;13.10;99.90;;;;;;5031159;28;20532;-69
2023/06/03 01:49:45;;;;;;;10.23;7.00;;;13.10;99.90;;;;;;5030171;28;20508;-69
2023/06/03 01:52:11;;;;;;;8.67;6.80;;;13.10;99.90;;;;;;5031518;28;20977;-69
2023/06/03 01:54:37;;;;;;;7.37;6.20;;;13.10;99.90;;;;;;5028725;28;20406;-69
2023/06/03 01:57:03;;;;;;;9.97;6.50;;;13.10;99.90;;;;;;5031012;28;20421;-69
2023/06/03 01:59:29;;;;;;;10.60;7.47;;;13.10;99.90;;;;;;5031350;28;20179;-69
2023/06/03 02:01:58;;;;;;;8.87;6.13;;;13.10;99.90;;;;;;5031442;28;20477;-70
2023/06/03 02:04:25;;;;;;;8.27;6.37;;;13.00;99.90;;;;;;5029781;28;20797;-69
2023/06/03 02:06:56;;;;;;;7.07;6.30;;;13.00;99.90;;;;;;5029912;28;20460;-68
2023/06/03 02:09:24;;;;;;;8.27;6.90;;;12.90;99.90;;;;;;5031111;28;20421;-69
2023/06/03 02:11:51;;;;;;;13.63;7.07;;;12.80;99.90;;;;;;5031133;28;20460;-69
2023/06/03 02:14:17;;;;;;;12.17;6.43;;;12.80;99.90;;;;;;5030943;28;20471;-69
2023/06/03 02:16:43;;;;;;;11.23;6.60;;;12.80;99.90;;;;;;5030988;28;20600;-69
2023/06/03 02:19:24;;;;;;;10.20;6.90;;;12.80;99.90;;;;;;5031181;28;20538;-68
2023/06/03 02:21:50;;;;;;;8.63;6.33;;;12.80;99.90;;;;;;5030907;28;20187;-69
2023/06/03 02:24:16;;;;;;;10.00;6.63;;;12.70;99.90;;;;;;5029356;28;20499;-69
2023/06/03 02:26:54;;;;;;;8.57;6.87;;;12.80;99.90;;;;;;5030777;28;20825;-69
2023/06/03 02:29:22;;;;;;;9.00;7.17;;;12.80;99.90;;;;;;5010790;28;20436;-69
2023/06/03 02:31:51;;;;;;;8.10;6.00;;;12.80;99.90;;;;;;5010938;28;20426;-69
2023/06/03 02:34:17;;;;;;;8.53;6.50;;;12.80;99.90;;;;;;5010683;28;20481;-68
2023/06/03 02:36:43;;;;;;;10.03;6.00;;;12.80;99.90;;;;;;5010748;28;20800;-69
2023/06/03 02:39:13;;;;;;;8.67;6.23;;;12.80;99.90;;;;;;5010694;28;20190;-68
2023/06/03 02:41:41;;;;;;;10.97;6.93;;;12.80;99.90;;;;;;5009996;28;20418;-70
2023/06/03 02:44:07;;;;;;;11.07;7.30;;;12.80;99.90;;;;;;5010451;28;20425;-70
2023/06/03 02:46:32;;;;;;;10.27;6.47;;;12.80;99.90;;;;;;5010668;28;20446;-70
2023/06/03 02:49:02;;;;;;;8.00;6.60;;;12.70;99.90;;;;;;5010407;28;20787;-69
2023/06/03 02:51:28;;;;;;;10.87;7.27;;;12.60;99.90;;;;;;5010513;28;20559;-69
2023/06/03 02:53:54;;;;;;;8.03;6.30;;;12.60;99.90;;;;;;5010195;28;20470;-69
2023/06/03 02:56:22;;;;;;;10.57;7.17;;;12.60;99.90;;;;;;5010589;28;20179;-69
2023/06/03 02:58:48;;;;;;;11.37;7.00;;;12.60;99.90;;;;;;5010065;28;20414;-68
2023/06/03 03:01:14;;;;;;;10.10;7.13;;;12.60;99.90;;;;;;5010289;28;20406;-69
2023/06/03 03:03:40;;;;;;;13.73;6.30;;;12.50;99.90;;;;;;4992492;28;20429;-68
2023/06/03 03:06:06;;;;;;;13.73;6.93;;;12.50;99.90;;;;;;5007749;28;20267;-69
2023/06/03 03:08:35;;;;;;;12.00;6.47;;;12.40;99.90;;;;;;5010144;28;20717;-69
2023/06/03 03:11:01;;;;;;;9.20;6.53;;;12.40;99.90;;;;;;5010014;28;20468;-68
2023/06/03 03:13:27;;;;;;;9.00;6.53;;;12.50;99.90;;;;;;5009865;28;20468;-69
2023/06/03 03:15:52;;;;;;;6.97;5.93;;;12.50;99.90;;;;;;5010097;28;20186;-69
2023/06/03 03:18:18;;;;;;;6.50;5.83;;;12.40;99.90;;;;;;5009792;28;20733;-69
2023/06/03 03:20:44;;;;;;;7.20;5.40;;;12.30;99.90;;;;;;5009714;28;20260;-69
2023/06/03 03:23:12;;;;;;;9.10;6.33;;;12.40;99.90;;;;;;5008547;28;20187;-69
2023/06/03 03:25:38;;;;;;;6.70;5.90;;;12.40;99.90;;;;;;5009080;28;20190;-69
2023/06/03 03:28:04;;;;;;;5.90;5.30;;;12.40;99.90;;;;;;5018877;28;20923;-69
2023/06/03 03:30:30;;;;;;;6.80;5.83;;;12.30;99.90;;;;;;5029480;28;20190;-69
2023/06/03 03:32:58;;;;;;;9.37;5.57;;;12.30;99.90;;;;;;5029311;28;20930;-68
2023/06/03 03:35:25;;;;;;;7.17;6.43;;;12.30;99.90;;;;;;5029662;28;20214;-69
2023/06/03 03:38:03;;;;;;;8.33;6.47;;;12.20;99.90;;;;;;5029200;28;20821;-70
2023/06/03 03:40:35;;;;;;;6.97;5.07;;;12.20;99.90;;;;;;5029566;28;20409;-69
2023/06/03 03:43:02;;;;;;;6.80;5.10;;;12.20;99.90;;;;;;5029069;28;20428;-68
2023/06/03 03:45:37;;;;;;;9.23;5.23;;;12.20;99.90;;;;;;5029491;28;20420;-68
2023/06/03 03:48:05;;;;;;;9.13;5.63;;;12.30;99.90;;;;;;5028963;28;20436;-69
2023/06/03 03:50:47;;;;;;;6.20;5.43;;;12.30;99.90;;;;;;5029110;28;20418;-69
2023/06/03 03:53:40;;;;;;;11.97;6.10;;;12.20;99.90;;;;;;5027621;28;20512;-69
2023/06/03 03:56:06;;;;;;;6.63;5.20;;;12.30;99.90;;;;;;5028967;28;20758;-69
2023/06/03 03:58:37;;;;;;;7.30;4.83;;;12.30;99.90;;;;;;5028718;28;20437;-68
2023/06/03 04:01:17;;;;;;;7.63;5.17;;;12.30;99.90;;;;;;5028968;28;20640;-69
2023/06/03 04:03:45;;;;;;;6.40;5.30;;;12.30;99.90;;;;;;5028797;28;20416;-69
2023/06/03 04:06:13;;;;;;;8.33;5.53;;;12.30;99.90;;;;;;5026247;28;20448;-69
2023/06/03 04:08:46;;;;;;;6.07;4.90;;;12.20;99.90;;;;;;5028677;28;20886;-69
2023/06/03 04:11:25;;;;;;;5.80;4.90;;;12.20;99.90;;;;;;5028939;28;20428;-69
2023/06/03 04:13:52;;;;;;;5.27;4.67;;;12.30;99.90;;;;;;5027353;28;20460;-69
2023/06/03 04:16:42;;;;;;;5.30;4.77;;;12.40;99.90;;;;;;5028778;28;20417;-69
2023/06/03 04:19:15;;;;;;;5.93;5.30;;;12.30;99.90;;;;;;5027808;28;20425;-69
2023/06/03 04:21:41;;;;;;;6.03;5.27;;;12.30;99.90;;;;;;5028735;28;20409;-68
2023/06/03 04:24:08;;;;;;;5.60;5.10;;;12.30;99.90;;;;;;5028640;28;20421;-69
2023/06/03 04:26:34;;;;;;;6.93;4.73;;;12.30;99.90;;;;;;5028857;28;20440;-69
2023/06/03 04:29:00;;;;;;;5.70;4.80;;;12.20;99.90;;;;;;5011406;28;20433;-68
2023/06/03 04:31:26;;;;;;;7.83;4.27;;;12.30;99.90;;;;;;5008769;28;20911;-69
2023/06/03 04:33:51;;;;;;;8.97;5.57;;;12.30;99.90;;;;;;5008460;28;20469;-68
2023/06/03 04:36:17;;;;;;;7.53;4.80;;;12.20;99.90;;;;;;5009005;28;20183;-69
2023/06/03 04:38:43;;;;;;;6.73;4.70;;;12.20;99.90;;;;;;5008554;28;20172;-69
2023/06/03 04:41:11;;;;;;;5.43;4.43;;;12.30;99.90;;;;;;5008833;28;20244;-69
2023/06/03 04:43:43;;;;;;;5.97;5.00;;;12.40;99.90;;;;;;5008505;28;20206;-69
2023/06/03 04:46:09;;;;;;;6.90;4.70;;;12.30;99.90;;;;;;5009100;28;20418;-68
2023/06/03 04:48:45;;;;;;;7.40;4.53;;;12.40;99.90;;;;;;5008436;28;20503;-69
2023/06/03 04:51:11;;;;;;;5.67;5.07;;;12.40;99.90;;;;;;5008799;28;20418;-68
2023/06/03 04:53:37;;;;;;;5.50;5.00;;;12.40;99.90;;;;;;5007109;28;20473;-68
2023/06/03 04:56:04;;;;;;;6.80;4.60;;;12.60;99.90;;;;;;5008845;28;20406;-68
2023/06/03 04:58:30;;;;;;;5.07;4.33;;;12.60;99.90;;;;;;5008449;28;20202;-68
2023/06/03 05:00:56;;;;;;;5.27;4.20;;;12.70;99.90;;;;;;5008587;28;20423;-68
2023/06/03 05:03:22;;;;;;;5.90;4.30;;;12.80;99.90;;;;;;5008881;28;20418;-69
2023/06/03 05:05:48;;;;;;;9.53;4.60;;;12.80;99.90;;;;;;5008751;28;20918;-68
2023/06/03 05:08:14;;;;;;;6.87;4.50;;;13.00;99.90;;;;;;5008360;28;21013;-68
2023/06/03 05:10:40;;;;;;;5.93;4.20;;;13.00;99.90;;;;;;5008622;28;20429;-68
2023/06/03 05:13:06;;;;;;;7.50;4.40;;;13.10;99.90;;;;;;5008166;28;20990;-69
2023/06/03 05:15:35;;;;;;;3.77;3.43;;;13.20;99.90;;;;;;5008900;28;20432;-69
2023/06/03 05:18:02;;;;;;;4.27;3.87;;;13.30;99.90;;;;;;5008185;28;20434;-69
2023/06/03 05:20:28;;;;;;;6.10;3.83;;;13.40;99.90;;;;;;5008458;28;20780;-69
2023/06/03 05:22:54;;;;;;;5.93;4.20;;;13.50;99.90;;;;;;5008503;28;20421;-69
2023/06/03 05:25:20;;;;;;;4.30;3.90;;;13.60;99.90;;;;;;5021573;28;20480;-69
2023/06/03 05:27:46;;;;;;;5.23;3.77;;;13.60;99.90;;;;;;5028022;28;20499;-69
2023/06/03 05:30:12;;;;;;;4.90;3.30;;;13.60;99.90;;;;;;5031620;28;20187;-69
2023/06/03 05:32:40;;;;;;;7.27;3.57;;;13.60;99.90;;;;;;5031808;28;20221;-69
2023/06/03 05:35:06;;;;;;;4.50;3.17;;;13.70;99.90;;;;;;5031604;28;20416;-69
2023/06/03 05:37:31;;;;;;;3.80;3.50;;;13.80;99.90;;;;;;5031395;28;20429;-69
2023/06/03 05:39:57;;;;;;;5.23;2.73;;;14.00;99.90;;;;;;5031509;28;20733;-68
2023/06/03 05:42:22;;;;;;;4.13;3.23;;;14.00;99.90;;;;;;5031713;28;20182;-69
2023/06/03 05:44:48;;;;;;;3.90;2.80;;;14.10;99.90;;;;;;5031401;28;20178;-69
2023/06/03 05:47:14;;;;;;;5.20;2.90;;;14.20;99.90;;;;;;5031637;28;20194;-69
2023/06/03 05:49:39;;;;;;;4.27;3.33;;;14.40;99.90;;;;;;5029949;28;20182;-69
2023/06/03 05:52:05;;;;;;;3.20;2.80;;;14.50;99.90;;;;;;5027131;28;20201;-69
2023/06/03 05:54:31;;;;;;;3.90;2.90;;;14.70;99.90;;;;;;5030930;28;20210;-69
2023/06/03 05:56:58;;;;;;;3.33;2.67;;;14.80;99.90;;;;;;5031375;28;20545;-69
2023/06/03 05:59:24;;;;;;;4.30;2.73;;;15.10;99.90;;;;;;5027698;28;20265;-69
2023/06/03 06:01:50;;;;;;;4.43;2.90;;;15.20;99.90;;;;;;5028677;28;20413;-69
2023/06/03 06:04:16;;;;;;;6.07;2.77;;;15.40;99.90;;;;;;5030968;28;21879;-69
2023/06/03 06:06:41;;;;;;;3.90;2.20;;;15.50;99.90;;;;;;5030256;28;20281;-69
2023/06/03 06:09:07;;;;;;;6.20;2.80;;;15.60;99.90;;;;;;5030789;28;20413;-69
2023/06/03 06:11:33;;;;;;;2.93;2.03;;;15.60;99.40;;;;;;5030899;28;20182;-69
2023/06/03 06:13:59;;;;;;;2.10;1.90;;;15.70;98.70;;;;;;5031014;28;20221;-69
2023/06/03 06:16:25;;;;;;;4.13;3.00;;;15.70;98.70;;;;;;5031414;28;20409;-69
2023/06/03 06:18:51;;;;;;;3.70;2.27;;;15.80;98.60;;;;;;5031169;28;20890;-69
2023/06/03 06:21:17;;;;;;;2.70;2.30;;;15.80;98.20;;;;;;5030050;28;20260;-69
2023/06/03 06:23:43;;;;;;;4.13;2.10;;;15.90;98.00;;;;;;5029970;28;20197;-69
2023/06/03 06:26:12;;;;;;;4.77;2.30;;;16.00;98.00;;;;;;5031390;28;20428;-69
2023/06/03 06:28:39;;;;;;;10.40;2.10;;;16.00;97.20;;;;;;5031045;28;20907;-69
2023/06/03 06:31:05;;;;;;;3.60;1.83;;;16.00;96.70;;;;;;5031174;28;21092;-69
2023/06/03 06:33:33;;;;;;;3.17;1.83;;;16.10;96.40;;;;;;5028997;28;20547;-69
2023/06/03 06:36:22;;;;;;;2.50;1.50;;;16.10;96.50;;;;;;5030970;28;20431;-69
2023/06/03 06:38:48;;;;;;;4.53;1.70;;;16.20;96.00;;;;;;5027658;28;20456;-69
2023/06/03 06:41:15;;;;;;;4.67;2.10;;;16.30;95.90;;;;;;5029378;28;20437;-69
2023/06/03 06:43:40;;;;;;;2.80;1.90;;;16.30;95.30;;;;;;5028762;28;20297;-69
2023/06/03 06:46:07;;;;;;;4.80;1.80;;;16.30;94.50;;;;;;5027387;28;20532;-69
2023/06/03 06:48:34;;;;;;;2.83;1.70;;;16.40;95.50;;;;;;5017861;28;20203;-69
2023/06/03 06:51:00;;;;;;;4.27;1.53;;;16.50;94.40;;;;;;5016261;28;20418;-69
2023/06/03 06:53:28;;;;;;;2.00;1.50;;;16.60;94.30;;;;;;5010654;28;20564;-69
2023/06/03 06:56:03;;;;;;;3.13;1.80;;;16.70;93.80;;;;;;4993453;28;20504;-69
2023/06/03 06:58:36;;;;;;;1.53;1.30;;;16.70;94.40;;;;;;5010855;28;20437;-69
2023/06/03 07:01:05;;;;;;;4.63;1.77;;;16.80;94.50;;;;;;5030392;28;20780;-69
2023/06/03 07:03:32;;;;;;;2.60;1.70;;;16.90;93.80;;;;;;5030459;28;20504;-69
2023/06/03 07:05:58;;;;;;;2.87;1.60;;;17.00;93.70;;;;;;5029863;28;20452;-69
2023/06/03 07:08:24;;;;;;;4.97;1.70;;;17.10;92.70;;;;;;5030253;28;21063;-69
2023/06/03 07:10:54;;;;;;;4.17;1.50;;;17.20;92.90;;;;;;5028473;28;20317;-69
2023/06/03 07:13:20;;;;;;;2.97;1.60;;;17.20;92.80;;;;;;5026688;28;20485;-69
2023/06/03 07:15:46;;;;;;;3.87;1.70;;;17.30;93.30;;;;;;5024490;28;20507;-69
2023/06/03 07:18:12;;;;;;;2.50;1.53;;;17.40;93.20;;;;;;5021138;28;20706;-69
2023/06/03 07:20:43;;;;;;;1.77;1.50;;;17.40;92.80;;;;;;5022401;28;20580;-69
2023/06/03 07:23:10;;;;;;;2.20;1.40;;;17.50;93.00;;;;;;5028778;28;20507;-69
2023/06/03 07:25:43;;;;;;;3.13;1.53;;;17.50;92.70;;;;;;5022955;28;20436;-69
2023/06/03 07:28:14;;;;;;;2.03;1.50;;;17.60;93.00;;;;;;5027211;28;20882;-69
2023/06/03 07:30:42;;;;;;;2.40;1.50;;;17.70;92.50;;;;;;5029095;28;20445;-69
2023/06/03 07:33:10;;;;;;;1.60;1.20;;;17.60;93.10;;;;;;5029390;28;20460;-69
2023/06/03 07:35:36;;;;;;;2.90;1.60;;;17.50;92.50;;;;;;5026986;28;20433;-69
2023/06/03 07:38:06;;;;;;;3.77;1.43;;;17.30;92.90;;;;;;5024068;28;20780;-69
2023/06/03 07:40:42;;;;;;;1.80;1.33;;;17.20;92.80;;;;;;5025609;28;20762;-69
2023/06/03 07:43:12;;;;;;;3.10;1.57;;;17.00;93.30;;;;;;5021184;28;20488;-69
2023/06/03 07:45:38;;;;;;;3.13;1.50;;;17.00;93.10;;;;;;5025908;28;20434;-69
2023/06/03 07:48:07;;;;;;;2.33;1.60;;;17.00;93.00;;;;;;5026749;28;20524;-69
2023/06/03 07:50:33;;;;;;;2.20;1.47;;;17.00;93.50;;;;;;5028281;28;20564;-69
2023/06/03 07:53:05;;;;;;;1.27;1.00;;;17.10;93.20;;;;;;5028884;28;20551;-69
2023/06/03 07:55:46;;;;;;;2.20;1.50;;;17.10;93.70;;;;;;5029425;28;20182;-69
2023/06/03 07:58:12;;;;;;;1.40;1.00;;;17.20;92.60;;;;;;5028758;28;20437;-69
2023/06/03 08:00:43;;;;;;;2.63;1.60;;;17.20;93.00;;;;;;5029023;28;20413;-69
2023/06/03 08:03:08;;;;;;;5.03;1.50;;;17.20;92.10;;;;;;5028775;28;20424;-69
2023/06/03 08:05:36;;;;;;;4.57;1.37;;;17.20;92.30;;;;;;5028139;28;20440;-69
2023/06/03 08:08:05;;;;;;;5.30;1.60;;;17.20;92.30;;;;;;5028645;28;20206;-69
2023/06/03 08:10:33;;;;;;;4.23;1.30;;;17.00;92.90;;;;;;5029023;28;20429;-69
2023/06/03 08:12:59;;;;;;;1.30;1.00;;;17.00;92.50;;;;;;5028847;28;20464;-69
2023/06/03 08:15:27;;;;;;;3.37;1.20;;;17.00;92.50;;;;;;5029099;28;20409;-69
2023/06/03 08:17:53;;;;;;;1.13;1.03;;;17.00;92.40;;;;;;5028691;28;20433;-69
2023/06/03 08:20:26;;;;;;;1.97;1.27;;;17.00;92.10;;;;;;5028739;28;20418;-69
2023/06/03 08:22:52;;;;;;;3.17;1.33;;;17.10;92.30;;;;;;5028784;28;20414;-69
2023/06/03 08:25:18;;;;;;;4.90;1.47;;;17.10;92.00;;;;;;5028704;28;20424;-69
2023/06/03 08:27:43;;;;;;;2.13;1.13;;;17.20;91.30;;;;;;5028600;28;20230;-69
2023/06/03 08:30:14;;;;;;;2.70;1.37;;;17.20;91.10;;;;;;5027971;28;20507;-69
2023/06/03 08:32:41;;;;;;;1.80;0.90;;;17.30;91.00;;;;;;5025475;28;20308;-69
2023/06/03 08:35:08;;;;;;;1.40;1.00;;;17.40;90.90;;;;;;5023843;28;20503;-69
2023/06/03 08:37:35;;;;;;;1.40;0.93;;;17.50;90.60;;;;;;5022964;28;20444;-69
2023/06/03 08:40:05;;;;;;;1.53;1.03;;;17.50;91.50;;;;;;5027591;28;20418;-69
2023/06/03 08:42:38;;;;;;;2.67;1.30;;;17.70;91.40;;;;;;5019219;28;20405;-69
2023/06/03 08:45:09;;;;;;;2.80;1.07;;;17.80;90.80;;;;;;5018883;28;20418;-69
2023/06/03 08:47:54;;;;;;;1.43;1.23;;;17.80;90.60;;;;;;5019096;28;20453;-69
2023/06/03 08:50:24;;;;;;;3.60;1.20;;;17.80;90.00;;;;;;5024595;28;20421;-69
2023/06/03 08:52:52;;;;;;;4.70;1.27;;;17.90;90.70;;;;;;5022378;28;20472;-69
2023/06/03 08:55:19;;;;;;;2.00;1.20;;;18.00;90.90;;;;;;5020163;28;20603;-69
2023/06/03 08:57:51;;;;;;;3.83;1.60;;;18.00;90.60;;;;;;5027474;28;20437;-69
2023/06/03 09:00:26;;;;;;;4.33;1.93;;;18.00;90.00;;;;;;5027744;28;20413;-69
2023/06/03 09:02:52;;;;;;;2.10;1.40;;;18.10;90.30;;;;;;5028347;28;20779;-69
2023/06/03 09:05:20;;;;;;;9.27;2.23;;;18.20;90.50;;;;;;5031859;28;20536;-69
2023/06/03 09:07:47;;;;;;;11.13;3.00;;;18.30;89.80;;;;;;5031878;28;21195;-69
2023/06/03 09:10:20;;;;;;;56.53;9.07;;;18.40;88.20;;;;;;5032119;28;20423;-69
2023/06/03 09:12:47;;;;;;;16.50;4.07;;;18.50;90.30;;;;;;5031723;28;21050;-70
2023/06/03 09:15:16;;;;;;;287.77;37.53;;;18.70;89.90;;;;;;5031890;28;20500;-70
2023/06/03 09:17:43;;;;;;;34.00;4.90;;;18.80;90.80;;;;;;5031818;28;20433;-69
2023/06/03 09:20:10;;;;;;;65.07;11.90;;;19.00;90.20;;;;;;5031723;28;20535;-69
2023/06/03 09:22:37;;;;;;;16.93;3.37;;;19.00;87.80;;;;;;5031620;28;20412;-69
2023/06/03 09:25:03;;;;;;;127.33;12.90;;;19.00;90.00;;;;;;5031504;28;20425;-69
2023/06/03 09:27:29;;;;;;;109.47;11.23;;;19.10;87.80;;;;;;5030329;28;20449;-69
2023/06/03 09:29:56;;;;;;;9.03;2.40;;;19.20;88.50;;;;;;5031079;28;20479;-69
2023/06/03 09:32:22;;;;;;;6.27;2.30;;;19.40;85.50;;;;;;5030841;28;20175;-69
2023/06/03 09:34:53;;;;;;;3.47;1.83;;;19.40;83.70;;;;;;5027981;28;20488;-69
2023/06/03 09:37:19;;;;;;;2.27;1.40;;;19.40;87.20;;;;;;5030310;28;20453;-69
2023/06/03 09:39:45;;;;;;;3.83;1.50;;;19.50;86.70;;;;;;5030820;28;20791;-69
2023/06/03 09:42:11;;;;;;;5.50;2.00;;;19.50;87.60;;;;;;5031327;28;20424;-69
2023/06/03 09:44:39;;;;;;;1.70;1.37;;;19.60;86.80;;;;;;5031184;28;20254;-69
2023/06/03 09:47:06;;;;;;;8.07;1.70;;;19.80;85.80;;;;;;5031089;28;20946;-69
2023/06/03 09:49:32;;;;;;;5.73;1.50;;;19.80;86.40;;;;;;5031264;28;20474;-69
2023/06/03 09:51:57;;;;;;;3.87;1.53;;;19.80;85.90;;;;;;5031572;28;20421;-69
2023/06/03 09:54:24;;;;;;;4.73;1.70;;;19.90;87.30;;;;;;5030857;28;20210;-69
2023/06/03 09:56:51;;;;;;;2.37;1.43;;;20.00;86.50;;;;;;5028426;28;20289;-69
2023/06/03 09:59:25;;;;;;;2.43;1.50;;;20.10;85.00;;;;;;5030947;28;20467;-69
2023/06/03 10:01:52;;;;;;;4.83;2.23;;;20.20;83.90;;;;;;5031123;28;20519;-69
2023/06/03 10:04:20;;;;;;;4.63;1.53;;;20.30;80.40;;;;;;5029517;28;20455;-70
2023/06/03 10:06:47;;;;;;;5.60;2.17;;;20.30;81.40;;;;;;5029004;28;20464;-70
2023/06/03 10:09:25;;;;;;;3.47;1.57;;;20.40;82.20;;;;;;5030286;28;20447;-70
2023/06/03 10:11:52;;;;;;;2.53;1.60;;;20.40;83.80;;;;;;5029727;28;20436;-69
2023/06/03 10:14:25;;;;;;;3.10;1.63;;;20.40;82.20;;;;;;5029225;28;20481;-70
2023/06/03 10:17:07;;;;;;;2.20;1.30;;;20.50;81.40;;;;;;5029972;28;20441;-69
2023/06/03 10:19:36;;;;;;;2.70;2.00;;;20.60;80.70;;;;;;5029411;28;20413;-70
2023/06/03 10:22:04;;;;;;;2.30;1.50;;;20.60;81.10;;;;;;5031377;28;20770;-69
2023/06/03 10:24:31;;;;;;;6.90;1.60;;;20.70;77.30;;;;;;5030692;28;20417;-70
2023/06/03 10:26:57;;;;;;;3.60;1.30;;;20.70;82.30;;;;;;5030559;28;20883;-69
2023/06/03 10:29:25;;;;;;;2.13;1.17;;;20.80;75.70;;;;;;5030504;28;20508;-69
2023/06/03 10:31:53;;;;;;;5.63;3.03;;;20.90;76.30;;;;;;5030841;28;20425;-69
2023/06/03 10:34:20;;;;;;;3.33;1.60;;;20.90;78.80;;;;;;5030280;28;20464;-69
2023/06/03 10:36:56;;;;;;;3.00;1.70;;;20.90;76.50;;;;;;5024528;28;21164;-70
2023/06/03 10:39:24;;;;;;;3.07;1.97;;;20.90;79.10;;;;;;5028851;28;20437;-69
2023/06/03 10:41:56;;;;;;;4.80;1.50;;;21.00;76.30;;;;;;5030423;28;20488;-69
2023/06/03 10:44:22;;;;;;;1.97;1.30;;;21.10;74.80;;;;;;5030048;28;20933;-69
2023/06/03 10:47:05;;;;;;;3.30;1.50;;;21.20;73.40;;;;;;5029709;28;20445;-69
2023/06/03 10:49:41;;;;;;;5.73;1.83;;;21.30;76.70;;;;;;5027256;28;20738;-69
2023/06/03 10:52:37;;;;;;;2.40;1.20;;;21.30;75.60;;;;;;5029019;28;20413;-69
2023/06/03 10:55:07;;;;;;;3.10;1.40;;;21.30;72.00;;;;;;5029612;28;20422;-69
2023/06/03 10:57:44;;;;;;;1.63;1.27;;;21.30;73.20;;;;;;5027055;28;20425;-70
2023/06/03 11:00:11;;;;;;;1.70;1.30;;;21.40;71.70;;;;;;5029106;28;20416;-69
2023/06/03 11:03:06;;;;;;;3.20;1.70;;;21.40;68.00;;;;;;5028200;28;20513;-69
2023/06/03 11:05:32;;;;;;;4.50;1.60;;;21.40;72.40;;;;;;5028290;28;20429;-70
2023/06/03 11:07:58;;;;;;;3.40;1.50;;;21.50;71.10;;;;;;5024366;28;20455;-69
2023/06/03 11:10:43;;;;;;;2.47;1.33;;;21.60;73.30;;;;;;5025651;28;21087;-69
2023/06/03 11:13:11;;;;;;;1.80;1.20;;;21.60;70.20;;;;;;5028452;28;20210;-70
2023/06/03 11:16:01;;;;;;;5.00;1.57;;;21.70;68.60;;;;;;5026528;28;20444;-70
2023/06/03 11:18:29;;;;;;;4.10;1.23;;;21.70;71.30;;;;;;5024964;28;20456;-69
2023/06/03 11:20:55;;;;;;;3.00;1.63;;;21.80;72.60;;;;;;5028120;28;20579;-69
2023/06/03 11:23:39;;;;;;;3.57;1.70;;;21.80;70.30;;;;;;5028109;28;21272;-69
2023/06/03 11:26:44;;;;;;;2.57;1.60;;;21.80;68.30;;;;;;5027973;28;20409;-69
2023/06/03 11:29:56;;;;;;;2.27;1.50;;;21.90;68.40;;;;;;5007260;28;20433;-70
2023/06/03 11:32:36;;;;;;;4.07;1.73;;;22.00;67.00;;;;;;5006170;28;20422;-70
2023/06/03 11:35:05;;;;;;;3.40;1.77;;;21.90;66.60;;;;;;5026449;28;20526;-69
2023/06/03 11:37:48;;;;;;;1.97;1.57;;;22.00;65.70;;;;;;5029158;28;20448;-69
2023/06/03 11:40:19;;;;;;;2.97;1.70;;;22.00;67.50;;;;;;5029344;28;20409;-69
2023/06/03 11:42:51;;;;;;;2.10;1.70;;;21.90;64.20;;;;;;5029437;28;20410;-69
2023/06/03 11:45:20;;;;;;;1.83;1.50;;;21.90;68.00;;;;;;5027967;28;20444;-69
2023/06/03 11:47:52;;;;;;;2.87;1.60;;;21.90;68.50;;;;;;5027675;28;20437;-70
2023/06/03 11:50:19;;;;;;;2.40;1.70;;;22.10;66.00;;;;;;5024572;28;20425;-70
2023/06/03 11:52:45;;;;;;;2.30;1.40;;;22.10;68.50;;;;;;5028685;28;20468;-69
2023/06/03 11:55:11;;;;;;;3.93;1.53;;;22.20;63.00;;;;;;5028934;28;20409;-69
2023/06/03 11:57:39;;;;;;;5.43;2.10;;;22.20;62.50;;;;;;5028756;28;20444;-70
2023/06/03 12:00:10;;;;;;;1.70;1.40;;;22.20;62.00;;;;;;5028797;28;20405;-69
2023/06/03 12:02:46;;;;;;;2.47;1.50;;;22.20;62.30;;;;;;5029264;28;20891;-69
2023/06/03 12:05:15;;;;;;;3.50;1.40;;;22.20;63.30;;;;;;5028674;28;20429;-69
2023/06/03 12:08:00;;;;;;;4.50;1.77;;;22.30;64.60;;;;;;5028511;28;20429;-69
2023/06/03 12:10:39;;;;;;;5.03;1.50;;;22.30;62.40;;;;;;5028819;28;20493;-70
2023/06/03 12:13:05;;;;;;;2.70;1.60;;;22.30;63.10;;;;;;5028496;28;20461;-70
2023/06/03 12:15:30;;;;;;;2.63;1.40;;;22.30;62.50;;;;;;5017508;28;20788;-69
2023/06/03 12:18:03;;;;;;;2.97;1.63;;;22.30;64.30;;;;;;5008710;28;20203;-70
2023/06/03 12:20:29;;;;;;;2.93;1.53;;;22.30;62.90;;;;;;5008968;28;20270;-70
2023/06/03 12:23:03;;;;;;;2.90;1.50;;;22.30;61.40;;;;;;5012937;28;20487;-70
2023/06/03 12:25:29;;;;;;;2.17;1.30;;;22.40;64.90;;;;;;5017929;28;20422;-70
2023/06/03 12:27:56;;;;;;;2.13;1.40;;;22.50;59.50;;;;;;5023264;28;20457;-69
2023/06/03 12:30:33;;;;;;;1.40;1.20;;;22.50;59.00;;;;;;5026563;28;20445;-69
2023/06/03 12:32:59;;;;;;;1.80;1.53;;;22.50;60.30;;;;;;5022904;28;20576;-69
2023/06/03 12:35:28;;;;;;;2.00;1.40;;;22.50;58.50;;;;;;5022876;28;20555;-69
2023/06/03 12:38:07;;;;;;;4.13;1.50;;;22.40;59.40;;;;;;5024859;28;20506;-69
2023/06/03 12:40:35;;;;;;;1.80;1.70;;;22.40;62.10;;;;;;5025759;28;20417;-69
2023/06/03 12:43:02;;;;;;;2.97;1.40;;;22.40;59.10;;;;;;5027861;28;20914;-69
2023/06/03 12:45:27;;;;;;;3.30;1.50;;;22.40;58.90;;;;;;5024874;28;20444;-69
2023/06/03 12:47:54;;;;;;;3.27;1.30;;;22.40;58.00;;;;;;5027344;28;20448;-69
2023/06/03 12:50:23;;;;;;;2.50;1.50;;;22.40;58.40;;;;;;5027719;28;20265;-70
2023/06/03 12:52:50;;;;;;;1.53;1.43;;;22.40;57.90;;;;;;5027725;28;20461;-70
2023/06/03 12:55:17;;;;;;;3.23;1.60;;;22.50;62.50;;;;;;5027594;28;20464;-69